createdAt,value
2023-05-07T00:00:32.460Z,76.75
2023-05-07T00:02:59.232Z,76.44
2023-05-07T00:05:25.985Z,75.65
2023-05-07T00:07:53.932Z,76.43
2023-05-07T00:10:20.843Z,76.32
2023-05-07T00:12:47.955Z,78.23
2023-05-07T00:15:14.710Z,77.06
2023-05-07T00:17:41.547Z,73.12
2023-05-07T00:20:08.685Z,74.98
2023-05-07T00:22:35.632Z,75.69
2023-05-07T00:25:02.375Z,75.12
2023-05-07T00:27:29.108Z,77.27
2023-05-07T00:29:55.986Z,76.61
2023-05-07T00:32:22.806Z,77.44
2023-05-07T00:34:49.637Z,76.44
2023-05-07T00:37:16.338Z,77.23
2023-05-07T00:39:43.051Z,76.47
2023-05-07T00:42:10.031Z,75.98
2023-05-07T00:44:36.837Z,75.53
2023-05-07T00:47:04.736Z,75.02
2023-05-07T00:49:37.052Z,75.30
2023-05-07T00:52:03.804Z,72.99
2023-05-07T00:54:30.744Z,69.69
2023-05-07T00:56:57.503Z,70.86
2023-05-07T00:59:24.924Z,70.76
2023-05-07T01:01:53.301Z,71.90
2023-05-07T01:04:20.033Z,74.24
2023-05-07T01:06:47.543Z,73.14
2023-05-07T01:09:14.953Z,75.38
2023-05-07T01:11:41.784Z,73.37
2023-05-07T01:14:09.225Z,72.57
2023-05-07T01:16:35.987Z,71.36
2023-05-07T01:19:02.693Z,70.96
2023-05-07T01:21:33.937Z,69.97
2023-05-07T01:24:00.843Z,72.82
2023-05-07T01:26:27.617Z,71.75
2023-05-07T01:28:54.294Z,71.47
2023-05-07T01:31:21.601Z,71.03
2023-05-07T01:33:50.230Z,71.71
2023-05-07T01:36:18.651Z,70.00
2023-05-07T01:38:45.711Z,72.63
2023-05-07T01:41:13.058Z,74.40
2023-05-07T01:43:41.090Z,75.13
2023-05-07T01:46:08.227Z,74.80
2023-05-07T01:48:35.827Z,75.64
2023-05-07T01:51:03.391Z,79.33
2023-05-07T01:53:30.168Z,79.29
2023-05-07T01:55:56.948Z,77.08
2023-05-07T01:58:23.605Z,78.75
2023-05-07T02:00:50.334Z,80.22
2023-05-07T02:03:17.194Z,81.98
2023-05-07T02:05:43.940Z,88.77
2023-05-07T02:08:10.955Z,85.63
2023-05-07T02:10:37.745Z,83.36
2023-05-07T02:13:04.820Z,81.90
2023-05-07T02:15:31.687Z,79.55
2023-05-07T02:18:01.544Z,79.34
2023-05-07T02:20:28.674Z,78.26
2023-05-07T02:22:55.378Z,76.51
2023-05-07T02:25:22.347Z,75.76
2023-05-07T02:27:49.148Z,75.54
2023-05-07T02:30:16.195Z,77.10
2023-05-07T02:32:43.664Z,76.71
2023-05-07T02:35:10.594Z,76.24
2023-05-07T02:37:37.308Z,77.42
2023-05-07T02:40:05.546Z,79.61
2023-05-07T02:42:32.417Z,80.10
2023-05-07T02:44:59.175Z,79.82
2023-05-07T02:47:28.185Z,78.69
2023-05-07T02:49:55.214Z,76.03
2023-05-07T02:52:22.187Z,75.47
2023-05-07T02:54:48.946Z,76.53
2023-05-07T02:57:16.067Z,78.17
2023-05-07T02:59:43.196Z,77.15
2023-05-07T03:02:10.256Z,77.24
2023-05-07T03:04:37.199Z,77.48
2023-05-07T03:07:04.013Z,78.74
2023-05-07T03:09:30.841Z,77.94
2023-05-07T03:11:57.759Z,78.43
2023-05-07T03:14:24.463Z,78.86
2023-05-07T03:16:51.374Z,78.30
2023-05-07T03:19:18.106Z,77.92
2023-05-07T03:21:44.778Z,79.82
2023-05-07T03:24:11.596Z,78.34
2023-05-07T03:26:38.321Z,77.34
2023-05-07T03:29:05.005Z,77.95
2023-05-07T03:31:31.759Z,77.83
2023-05-07T03:33:58.907Z,77.14
2023-05-07T03:36:27.887Z,76.78
2023-05-07T03:38:54.727Z,77.23
2023-05-07T03:41:21.933Z,78.99
2023-05-07T03:43:48.727Z,78.54
2023-05-07T03:46:15.693Z,82.30
2023-05-07T03:48:42.430Z,86.35
2023-05-07T03:51:09.165Z,83.11
2023-05-07T03:53:36.015Z,82.66
2023-05-07T03:56:02.731Z,88.46
2023-05-07T03:58:29.471Z,88.35
2023-05-07T04:00:56.135Z,87.21
2023-05-07T04:03:22.997Z,85.33
2023-05-07T04:05:49.799Z,86.84
2023-05-07T04:08:16.513Z,84.18
2023-05-07T04:10:43.238Z,88.56
2023-05-07T04:13:10.090Z,87.80
2023-05-07T04:15:37.278Z,89.95
2023-05-07T04:18:04.129Z,89.13
2023-05-07T04:20:30.870Z,89.40
2023-05-07T04:22:57.613Z,91.10
2023-05-07T04:25:28.014Z,88.69
2023-05-07T04:27:56.668Z,90.69
2023-05-07T04:30:24.833Z,94.18
2023-05-07T04:32:51.734Z,93.55
2023-05-07T04:35:18.676Z,90.04
2023-05-07T04:37:45.401Z,88.40
2023-05-07T04:40:12.467Z,88.14
2023-05-07T04:42:39.330Z,88.38
2023-05-07T04:45:06.375Z,84.03
2023-05-07T04:47:33.121Z,85.90
2023-05-07T04:49:59.867Z,85.53
2023-05-07T04:52:27.426Z,85.49
2023-05-07T04:54:54.218Z,86.51
2023-05-07T04:57:20.989Z,88.31
2023-05-07T04:59:47.697Z,84.48
2023-05-07T05:02:14.356Z,88.09
2023-05-07T05:04:41.026Z,87.30
2023-05-07T05:07:07.771Z,87.25
2023-05-07T05:09:34.475Z,83.94
2023-05-07T05:12:01.184Z,86.13
2023-05-07T05:14:28.991Z,86.39
2023-05-07T05:16:55.874Z,86.96
2023-05-07T05:19:22.574Z,91.11
2023-05-07T05:21:49.252Z,88.46
2023-05-07T05:24:16.522Z,87.68
2023-05-07T05:26:43.276Z,89.21
2023-05-07T05:29:10.154Z,90.33
2023-05-07T05:31:37.548Z,86.83
2023-05-07T05:34:04.830Z,88.26
2023-05-07T05:36:31.952Z,87.79
2023-05-07T05:38:58.732Z,88.82
2023-05-07T05:41:26.155Z,86.55
2023-05-07T05:43:52.915Z,84.09
2023-05-07T05:46:19.669Z,83.97
2023-05-07T05:48:46.456Z,84.37
2023-05-07T05:51:13.675Z,88.71
2023-05-07T05:53:40.427Z,86.85
2023-05-07T05:56:07.415Z,81.45
2023-05-07T05:58:34.267Z,82.01
2023-05-07T06:01:01.256Z,80.92
2023-05-07T06:03:28.042Z,83.20
2023-05-07T06:05:54.835Z,80.61
2023-05-07T06:08:21.635Z,81.33
2023-05-07T06:10:48.434Z,81.99
2023-05-07T06:13:15.300Z,78.83
2023-05-07T06:15:42.103Z,79.86
2023-05-07T06:18:08.920Z,82.61
2023-05-07T06:20:35.619Z,80.63
2023-05-07T06:23:02.335Z,80.23
2023-05-07T06:25:29.090Z,80.05
2023-05-07T06:27:55.813Z,76.63
2023-05-07T06:30:22.732Z,75.67
2023-05-07T06:32:49.533Z,77.97
2023-05-07T06:35:16.302Z,68.42
2023-05-07T06:37:43.957Z,66.45
2023-05-07T06:40:11.255Z,64.45
2023-05-07T06:42:38.616Z,65.47
2023-05-07T06:45:05.638Z,62.77
2023-05-07T06:47:32.388Z,59.95
2023-05-07T06:49:59.164Z,60.88
2023-05-07T06:52:26.217Z,57.91
2023-05-07T06:54:53.017Z,58.42
2023-05-07T06:57:19.756Z,58.16
2023-05-07T06:59:46.436Z,58.38
2023-05-07T07:02:13.167Z,54.95
2023-05-07T07:04:40.081Z,53.96
2023-05-07T07:07:06.942Z,50.90
2023-05-07T07:09:33.662Z,56.76
2023-05-07T07:12:00.433Z,55.41
2023-05-07T07:14:27.138Z,53.40
2023-05-07T07:16:53.902Z,56.55
2023-05-07T07:19:21.566Z,55.29
2023-05-07T07:21:48.333Z,53.59
2023-05-07T07:24:20.367Z,54.77
2023-05-07T07:26:47.133Z,52.89
2023-05-07T07:29:14.021Z,52.35
2023-05-07T07:31:40.894Z,49.30
2023-05-07T07:34:07.698Z,51.42
2023-05-07T07:36:42.838Z,48.79
2023-05-07T07:39:12.813Z,49.43
2023-05-07T07:41:39.627Z,47.58
2023-05-07T07:44:08.766Z,48.56
2023-05-07T07:46:36.094Z,46.38
2023-05-07T07:49:02.893Z,44.27
2023-05-07T07:51:29.705Z,43.74
2023-05-07T07:53:56.621Z,43.85
2023-05-07T07:56:23.537Z,42.02
2023-05-07T07:58:50.302Z,42.27
2023-05-07T08:01:17.897Z,41.01
2023-05-07T08:03:44.744Z,41.00
2023-05-07T08:06:11.805Z,40.20
2023-05-07T08:08:38.840Z,42.51
2023-05-07T08:11:05.664Z,43.90
2023-05-07T08:13:32.538Z,44.73
2023-05-07T08:15:59.292Z,42.63
2023-05-07T08:18:26.670Z,43.23
2023-05-07T08:20:53.501Z,40.47
2023-05-07T08:23:20.307Z,41.23
2023-05-07T08:25:47.077Z,41.22
2023-05-07T08:28:13.828Z,43.05
2023-05-07T08:30:40.651Z,38.32
2023-05-07T08:33:07.433Z,38.27
2023-05-07T08:35:34.232Z,40.44
2023-05-07T08:38:01.066Z,35.08
2023-05-07T08:40:28.129Z,37.02
2023-05-07T08:42:55.116Z,36.64
2023-05-07T08:45:22.305Z,35.59
2023-05-07T08:47:53.020Z,38.08
2023-05-07T08:50:21.009Z,37.04
2023-05-07T08:52:48.434Z,39.79
2023-05-07T08:55:15.368Z,35.93
2023-05-07T08:57:42.149Z,37.39
2023-05-07T09:00:09.226Z,37.28
2023-05-07T09:02:39.110Z,38.58
2023-05-07T09:05:06.144Z,36.04
2023-05-07T09:07:33.223Z,34.21
2023-05-07T09:10:02.439Z,38.13
2023-05-07T09:12:29.211Z,36.14
2023-05-07T09:14:55.927Z,35.62
2023-05-07T09:17:22.656Z,35.62
2023-05-07T09:19:49.577Z,35.85
2023-05-07T09:22:16.544Z,34.91
2023-05-07T09:24:48.530Z,35.55
2023-05-07T09:27:15.724Z,37.18
2023-05-07T09:29:42.546Z,34.67
2023-05-07T09:32:09.817Z,35.83
2023-05-07T09:34:37.478Z,36.17
2023-05-07T09:37:04.932Z,34.09
2023-05-07T09:39:57.784Z,34.84
2023-05-07T09:42:25.786Z,37.07
2023-05-07T09:44:52.529Z,37.56
2023-05-07T09:47:24.777Z,39.24
2023-05-07T09:49:51.544Z,39.43
2023-05-07T09:52:18.388Z,38.53
2023-05-07T09:54:46.477Z,37.30
2023-05-07T09:57:13.356Z,41.91
2023-05-07T09:59:43.512Z,40.20
2023-05-07T10:02:11.581Z,39.46
2023-05-07T10:04:38.451Z,37.86
2023-05-07T10:07:06.189Z,39.28
2023-05-07T10:09:33.294Z,40.98
2023-05-07T10:12:00.676Z,40.21
2023-05-07T10:14:29.350Z,40.43
2023-05-07T10:16:56.307Z,40.03
2023-05-07T10:19:23.342Z,42.34
2023-05-07T10:21:55.347Z,39.78
2023-05-07T10:24:26.876Z,41.84
2023-05-07T10:26:54.246Z,42.31
2023-05-07T10:29:33.066Z,41.95
2023-05-07T10:32:02.780Z,37.19
2023-05-07T10:34:34.099Z,39.30
2023-05-07T10:37:01.514Z,39.86
2023-05-07T10:39:28.466Z,38.65
2023-05-07T10:41:55.216Z,37.35
2023-05-07T10:44:29.380Z,39.92
2023-05-07T10:47:25.393Z,40.16
2023-05-07T10:49:52.275Z,38.10
2023-05-07T10:52:20.150Z,38.65
2023-05-07T10:54:47.383Z,42.56
2023-05-07T10:57:32.983Z,40.72
2023-05-07T10:59:59.830Z,40.47
2023-05-07T11:02:59.289Z,40.49
2023-05-07T11:05:26.289Z,38.76
2023-05-07T11:07:57.018Z,37.83
2023-05-07T11:10:23.829Z,39.40
2023-05-07T11:12:51.814Z,39.07
2023-05-07T11:15:38.854Z,37.02
2023-05-07T11:18:05.726Z,37.90
2023-05-07T11:20:54.305Z,38.17
2023-05-07T11:23:33.355Z,37.44
2023-05-07T11:26:07.199Z,38.08
2023-05-07T11:28:39.893Z,37.42
2023-05-07T11:31:06.699Z,36.70
2023-05-07T11:33:33.658Z,37.11
2023-05-07T11:36:03.949Z,35.95
2023-05-07T11:38:37.688Z,38.04
2023-05-07T11:41:06.247Z,38.72
2023-05-07T11:43:33.666Z,38.99
2023-05-07T11:46:11.125Z,39.44
2023-05-07T11:48:38.332Z,39.96
2023-05-07T11:51:06.367Z,40.76
2023-05-07T11:53:40.418Z,42.22
2023-05-07T11:56:08.335Z,42.59
2023-05-07T11:58:35.518Z,40.31
2023-05-07T12:01:02.261Z,41.40
2023-05-07T12:03:31.725Z,40.84
2023-05-07T12:05:59.005Z,38.90
2023-05-07T12:08:25.936Z,38.01
2023-05-07T12:10:52.763Z,37.97
2023-05-07T12:13:20.299Z,39.79
2023-05-07T12:15:47.242Z,40.44
2023-05-07T12:18:14.531Z,41.78
2023-05-07T12:20:41.616Z,39.07
2023-05-07T12:23:08.395Z,40.91
2023-05-07T12:25:44.391Z,40.23
2023-05-07T12:28:14.024Z,39.95
2023-05-07T12:30:41.104Z,41.42
2023-05-07T12:33:07.905Z,41.37
2023-05-07T12:35:40.705Z,40.66
2023-05-07T12:38:11.989Z,40.20
2023-05-07T12:40:38.707Z,38.07
2023-05-07T12:43:05.758Z,37.62
2023-05-07T12:45:32.663Z,40.07
2023-05-07T12:48:02.724Z,38.26
2023-05-07T12:50:32.430Z,37.81
2023-05-07T12:52:59.232Z,38.04
2023-05-07T12:55:26.228Z,39.46
2023-05-07T12:57:54.266Z,38.11
2023-05-07T13:00:34.115Z,37.86
2023-05-07T13:03:00.977Z,38.02
2023-05-07T13:05:27.758Z,40.97
2023-05-07T13:07:55.403Z,41.82
2023-05-07T13:10:22.932Z,42.22
2023-05-07T13:12:49.680Z,42.30
2023-05-07T13:15:17.035Z,40.64
2023-05-07T13:17:43.875Z,40.46
2023-05-07T13:20:11.272Z,39.59
2023-05-07T13:22:38.238Z,40.79
2023-05-07T13:25:05.114Z,39.54
2023-05-07T13:27:38.052Z,39.67
2023-05-07T13:30:06.082Z,37.34
2023-05-07T13:32:32.964Z,38.43
2023-05-07T13:34:59.825Z,39.79
2023-05-07T13:37:26.580Z,39.58
2023-05-07T13:39:53.390Z,40.77
2023-05-07T13:42:20.257Z,38.88
2023-05-07T13:44:47.301Z,40.29
2023-05-07T13:47:14.094Z,40.00
2023-05-07T13:49:40.922Z,39.96
2023-05-07T13:52:07.632Z,41.36
2023-05-07T13:54:34.394Z,40.51
2023-05-07T13:57:01.608Z,42.15
2023-05-07T13:59:28.338Z,42.09
2023-05-07T14:01:56.128Z,42.18
2023-05-07T14:04:22.986Z,41.58
2023-05-07T14:06:49.714Z,42.43
2023-05-07T14:09:16.549Z,41.09
2023-05-07T14:11:43.329Z,40.44
2023-05-07T14:14:12.043Z,39.46
2023-05-07T14:16:39.122Z,39.61
2023-05-07T14:19:06.059Z,38.77
2023-05-07T14:21:32.826Z,39.35
2023-05-07T14:23:59.602Z,40.85
2023-05-07T14:26:28.228Z,40.98
2023-05-07T14:28:56.200Z,40.42
2023-05-07T14:31:23.052Z,40.60
2023-05-07T14:33:51.767Z,41.39
2023-05-07T14:36:21.095Z,42.04
2023-05-07T14:38:48.384Z,41.04
2023-05-07T14:41:15.489Z,39.75
2023-05-07T14:43:42.329Z,40.33
2023-05-07T14:46:09.084Z,42.41
2023-05-07T14:48:35.895Z,43.99
2023-05-07T14:51:02.701Z,43.22
2023-05-07T14:53:29.388Z,43.14
2023-05-07T14:55:56.146Z,42.56
2023-05-07T14:58:22.991Z,44.24
2023-05-07T15:00:49.745Z,44.07
2023-05-07T15:03:16.708Z,43.93
2023-05-07T15:05:43.643Z,43.09
2023-05-07T15:08:11.108Z,45.50
2023-05-07T15:10:42.427Z,43.93
2023-05-07T15:13:12.445Z,42.96
2023-05-07T15:15:41.463Z,43.69
2023-05-07T15:18:08.557Z,43.08
2023-05-07T15:20:35.333Z,43.22
2023-05-07T15:23:02.260Z,43.44
2023-05-07T15:25:28.981Z,42.41
2023-05-07T15:27:55.699Z,44.76
2023-05-07T15:30:22.462Z,44.11
2023-05-07T15:32:49.623Z,46.71
2023-05-07T15:35:16.461Z,45.00
2023-05-07T15:37:43.253Z,45.76
2023-05-07T15:40:10.168Z,44.08
2023-05-07T15:42:36.933Z,44.24
2023-05-07T15:45:03.825Z,44.00
2023-05-07T15:47:33.695Z,44.13
2023-05-07T15:50:00.549Z,46.67
2023-05-07T15:52:28.508Z,46.75
2023-05-07T15:54:56.943Z,46.71
2023-05-07T15:57:24.257Z,44.89
2023-05-07T15:59:51.002Z,46.58
2023-05-07T16:02:17.797Z,47.50
2023-05-07T16:04:44.662Z,46.66
2023-05-07T16:07:12.773Z,47.66
2023-05-07T16:09:39.884Z,48.98
2023-05-07T16:12:06.658Z,50.19
2023-05-07T16:14:33.414Z,48.93
2023-05-07T16:17:00.171Z,49.98
2023-05-07T16:19:30.178Z,49.79
2023-05-07T16:21:57.253Z,50.89
2023-05-07T16:24:24.057Z,50.33
2023-05-07T16:26:50.912Z,50.46
2023-05-07T16:29:17.815Z,52.54
2023-05-07T16:31:44.906Z,51.75
2023-05-07T16:34:11.620Z,50.89
2023-05-07T16:36:38.337Z,50.98
2023-05-07T16:39:05.116Z,49.96
2023-05-07T16:41:31.909Z,50.29
2023-05-07T16:43:58.905Z,51.12
2023-05-07T16:46:25.830Z,50.87
2023-05-07T16:48:52.632Z,52.80
2023-05-07T16:51:19.382Z,51.54
2023-05-07T16:53:46.179Z,52.15
2023-05-07T16:56:12.953Z,53.21
2023-05-07T16:58:39.747Z,54.23
2023-05-07T17:01:07.448Z,52.37
2023-05-07T17:03:34.463Z,52.99
2023-05-07T17:06:01.310Z,53.68
2023-05-07T17:08:28.114Z,51.95
2023-05-07T17:10:54.791Z,54.09
2023-05-07T17:13:21.748Z,53.18
2023-05-07T17:15:48.657Z,55.25
2023-05-07T17:18:15.535Z,55.90
2023-05-07T17:20:42.350Z,53.00
2023-05-07T17:23:09.098Z,53.59
2023-05-07T17:25:37.154Z,53.19
2023-05-07T17:28:03.924Z,53.53
2023-05-07T17:30:30.665Z,52.13
2023-05-07T17:33:06.320Z,52.15
2023-05-07T17:35:39.945Z,52.73
2023-05-07T17:38:06.706Z,54.20
2023-05-07T17:40:34.685Z,52.66
2023-05-07T17:43:02.129Z,53.62
2023-05-07T17:45:28.859Z,52.74
2023-05-07T17:47:55.830Z,53.16
2023-05-07T17:50:23.012Z,53.89
2023-05-07T17:52:49.713Z,56.95
2023-05-07T17:55:16.884Z,57.71
2023-05-07T17:57:43.790Z,55.70
2023-05-07T18:00:11.498Z,56.55
2023-05-07T18:02:38.736Z,54.92
2023-05-07T18:05:05.732Z,56.76
2023-05-07T18:07:32.599Z,55.07
2023-05-07T18:09:59.496Z,56.10
2023-05-07T18:12:27.574Z,57.12
2023-05-07T18:14:54.751Z,58.31
2023-05-07T18:17:24.408Z,58.49
2023-05-07T18:19:54.560Z,57.25
2023-05-07T18:22:21.820Z,56.36
2023-05-07T18:24:48.861Z,58.09
2023-05-07T18:27:15.737Z,56.61
2023-05-07T18:29:42.538Z,55.47
2023-05-07T18:32:09.349Z,54.91
2023-05-07T18:34:36.169Z,55.68
2023-05-07T18:37:02.971Z,56.66
2023-05-07T18:39:29.709Z,58.84
2023-05-07T18:41:58.120Z,56.13
2023-05-07T18:44:25.193Z,59.08
2023-05-07T18:46:52.051Z,57.52
2023-05-07T18:49:18.948Z,56.22
2023-05-07T18:51:45.926Z,58.89
2023-05-07T18:54:12.986Z,59.73
2023-05-07T18:56:39.693Z,58.39
2023-05-07T18:59:06.439Z,60.63
2023-05-07T19:01:33.486Z,59.51
2023-05-07T19:04:00.287Z,60.80
2023-05-07T19:06:27.189Z,60.97
2023-05-07T19:08:53.964Z,61.54
2023-05-07T19:11:21.093Z,61.00
2023-05-07T19:13:47.907Z,60.32
2023-05-07T19:16:14.715Z,59.96
2023-05-07T19:18:41.940Z,58.40
2023-05-07T19:21:08.847Z,59.04
2023-05-07T19:23:41.832Z,55.68
2023-05-07T19:26:11.790Z,55.88
2023-05-07T19:28:42.223Z,55.28
2023-05-07T19:31:18.892Z,57.26
2023-05-07T19:33:46.129Z,55.63
2023-05-07T19:36:12.881Z,54.35
2023-05-07T19:38:39.630Z,54.27
2023-05-07T19:41:06.576Z,53.89
2023-05-07T19:43:36.433Z,52.56
2023-05-07T19:46:03.197Z,52.16
2023-05-07T19:48:30.290Z,51.91
2023-05-07T19:50:57.173Z,53.80
2023-05-07T19:53:23.943Z,54.26
2023-05-07T19:55:50.703Z,53.21
2023-05-07T19:58:17.391Z,53.02
2023-05-07T20:00:44.144Z,53.25
2023-05-07T20:03:18.280Z,52.61
2023-05-07T20:05:46.258Z,52.78
2023-05-07T20:08:12.994Z,52.52
2023-05-07T20:10:39.772Z,52.41
2023-05-07T20:13:06.565Z,51.91
2023-05-07T20:15:33.303Z,52.78
2023-05-07T20:18:00.082Z,51.99
2023-05-07T20:20:26.926Z,51.95
2023-05-07T20:22:53.622Z,52.00
2023-05-07T20:25:20.676Z,51.82
2023-05-07T20:27:47.399Z,53.95
2023-05-07T20:30:14.625Z,54.49
2023-05-07T20:32:41.941Z,52.33
2023-05-07T20:35:08.836Z,52.17
2023-05-07T20:37:36.158Z,52.34
2023-05-07T20:40:04.692Z,52.98
2023-05-07T20:42:31.429Z,52.76
2023-05-07T20:44:58.376Z,52.63
2023-05-07T20:47:25.114Z,52.74
2023-05-07T20:49:52.794Z,50.51
2023-05-07T20:52:19.639Z,50.34
2023-05-07T20:54:47.599Z,50.90
2023-05-07T20:57:14.545Z,50.24
2023-05-07T20:59:41.376Z,50.23
2023-05-07T21:02:08.270Z,51.65
2023-05-07T21:04:35.260Z,51.90
2023-05-07T21:07:02.016Z,50.69
2023-05-07T21:09:28.783Z,53.25
2023-05-07T21:11:55.472Z,54.21
2023-05-07T21:14:22.152Z,52.31
2023-05-07T21:16:48.922Z,52.93
2023-05-07T21:19:15.997Z,53.50
2023-05-07T21:21:43.307Z,56.75
2023-05-07T21:24:10.017Z,55.79
2023-05-07T21:26:36.785Z,54.43
2023-05-07T21:29:03.663Z,57.29
2023-05-07T21:31:30.496Z,56.30
2023-05-07T21:33:57.705Z,57.06
2023-05-07T21:36:24.408Z,57.86
2023-05-07T21:38:51.168Z,57.35
2023-05-07T21:41:20.532Z,56.93
2023-05-07T21:43:47.404Z,58.37
2023-05-07T21:46:14.133Z,57.36
2023-05-07T21:48:40.900Z,55.80
2023-05-07T21:51:08.318Z,56.45
2023-05-07T21:53:35.249Z,58.23
2023-05-07T21:56:03.175Z,57.35
2023-05-07T21:58:31.100Z,58.80
2023-05-07T22:00:58.292Z,57.87
2023-05-07T22:03:25.115Z,57.84
2023-05-07T22:05:51.839Z,57.74
2023-05-07T22:08:18.510Z,61.36
2023-05-07T22:10:45.168Z,60.83
2023-05-07T22:13:12.341Z,60.82
2023-05-07T22:15:49.529Z,60.01
2023-05-07T22:18:23.176Z,60.44
2023-05-07T22:20:51.228Z,58.67
2023-05-07T22:23:17.917Z,60.37
2023-05-07T22:25:44.563Z,59.67
2023-05-07T22:28:11.206Z,61.39
2023-05-07T22:30:38.026Z,61.37
2023-05-07T22:33:04.786Z,60.44
2023-05-07T22:35:31.570Z,60.61
2023-05-07T22:37:58.680Z,60.49
2023-05-07T22:40:25.342Z,62.15
2023-05-07T22:42:51.901Z,63.22
2023-05-07T22:45:18.532Z,64.57
2023-05-07T22:47:45.228Z,66.77
2023-05-07T22:50:12.364Z,63.13
2023-05-07T22:52:39.231Z,65.70
2023-05-07T22:55:06.184Z,66.17
2023-05-07T22:57:32.822Z,65.97
2023-05-07T22:59:59.402Z,66.60
2023-05-07T23:02:29.187Z,67.30
2023-05-07T23:04:58.531Z,63.63
2023-05-07T23:07:25.292Z,66.38
2023-05-07T23:09:52.204Z,65.65
2023-05-07T23:12:18.910Z,68.11
2023-05-07T23:14:45.651Z,68.32
2023-05-07T23:17:12.490Z,71.24
2023-05-07T23:19:39.283Z,72.29
2023-05-07T23:22:05.970Z,71.66
2023-05-07T23:24:32.672Z,73.19
2023-05-07T23:26:59.422Z,71.81
2023-05-07T23:29:26.111Z,68.55
2023-05-07T23:31:52.844Z,71.70
2023-05-07T23:34:24.183Z,71.39
2023-05-07T23:36:51.480Z,71.96
2023-05-07T23:39:18.552Z,74.37
2023-05-07T23:41:45.500Z,70.68
2023-05-07T23:44:12.423Z,69.08
2023-05-07T23:46:39.195Z,68.99
2023-05-07T23:49:06.023Z,69.60
2023-05-07T23:51:32.747Z,69.84
2023-05-07T23:53:59.463Z,69.65
2023-05-07T23:56:26.202Z,72.56
2023-05-07T23:58:52.947Z,69.13
